Time;durP1;ratioP1;P1;durP2;ratioP2;P2;SDS_P1;SDS_P2;PMS_P1;PMS_P2;Temp;Humidity;BMP_temperature;BMP_pressure;BME280_temperature;BME280_humidity;BME280_pressure;Samples;Min_cycle;Max_cycle;Signal;HPM_P1;HPM_P2
2023/07/07 00:00:50;;;;;;;6.82;4.55;;;14.30;99.90;;;;;;4987728;28;20465;-76
2023/07/07 00:03:16;;;;;;;8.95;4.80;;;14.20;99.90;;;;;;4989195;28;20403;-77
2023/07/07 00:05:47;;;;;;;6.25;4.57;;;14.10;99.90;;;;;;4989002;28;20415;-78
2023/07/07 00:08:12;;;;;;;7.18;5.28;;;14.10;99.90;;;;;;4988423;28;20434;-77
2023/07/07 00:10:38;;;;;;;5.38;4.63;;;14.50;99.90;;;;;;4989003;28;20561;-79
2023/07/07 00:13:04;;;;;;;8.52;4.50;;;14.10;99.90;;;;;;4988411;28;20426;-80
2023/07/07 00:15:30;;;;;;;5.65;4.53;;;14.00;99.90;;;;;;4988505;28;20434;-80
2023/07/07 00:17:55;;;;;;;10.32;5.00;;;13.90;99.90;;;;;;4989557;28;20494;-79
2023/07/07 00:20:21;;;;;;;9.93;4.10;;;13.90;99.90;;;;;;4988350;28;20422;-79
2023/07/07 00:22:47;;;;;;;6.67;4.77;;;13.90;99.90;;;;;;4989080;28;20410;-80
2023/07/07 00:25:13;;;;;;;8.85;4.65;;;14.00;99.90;;;;;;4988284;28;20885;-78
2023/07/07 00:27:39;;;;;;;7.72;4.40;;;14.10;99.90;;;;;;4988417;28;20438;-79
2023/07/07 00:30:07;;;;;;;6.07;4.28;;;14.10;99.90;;;;;;4988164;28;20414;-79
2023/07/07 00:32:33;;;;;;;6.90;4.18;;;14.00;99.90;;;;;;4988038;28;20418;-78
2023/07/07 00:34:58;;;;;;;8.27;4.88;;;14.00;99.90;;;;;;4988958;28;20442;-78
2023/07/07 00:37:24;;;;;;;7.00;4.28;;;13.80;99.90;;;;;;4988479;28;20422;-77
2023/07/07 00:39:50;;;;;;;5.60;4.55;;;13.60;99.90;;;;;;4989040;28;20411;-78
2023/07/07 00:42:16;;;;;;;5.97;4.57;;;13.50;99.90;;;;;;4987842;28;20422;-79
2023/07/07 00:45:20;;;;;;;5.95;4.32;;;13.50;99.90;;;;;;4988696;28;20488;-81
2023/07/07 00:47:58;;;;;;;7.82;4.82;;;13.50;99.90;;;;;;4989196;28;20406;-78
2023/07/07 00:50:34;;;;;;;7.75;5.30;;;13.50;99.90;;;;;;4988549;28;20844;-78
2023/07/07 00:53:00;;;;;;;5.73;3.97;;;13.50;99.90;;;;;;4988446;28;20461;-78
2023/07/07 00:55:31;;;;;;;7.40;4.80;;;13.60;99.90;;;;;;4988410;28;20430;-79
2023/07/07 00:58:02;;;;;;;8.50;4.75;;;13.70;99.90;;;;;;4986666;28;20426;-78
2023/07/07 01:00:28;;;;;;;9.07;4.78;;;13.70;99.90;;;;;;4991960;28;20426;-78
2023/07/07 01:02:57;;;;;;;6.30;4.38;;;13.60;99.90;;;;;;4993048;28;20450;-79
2023/07/07 01:05:28;;;;;;;8.75;4.35;;;13.70;99.90;;;;;;4991365;28;20469;-79
2023/07/07 01:07:57;;;;;;;6.38;3.92;;;13.60;99.90;;;;;;4993073;28;20433;-80
2023/07/07 01:10:23;;;;;;;8.80;4.60;;;13.40;99.90;;;;;;4999809;28;20786;-78
2023/07/07 01:12:51;;;;;;;6.80;4.80;;;13.30;99.90;;;;;;4992203;28;20435;-80
2023/07/07 01:15:17;;;;;;;6.85;4.55;;;13.30;99.90;;;;;;4990325;23;20467;-78
2023/07/07 01:17:58;;;;;;;6.25;4.32;;;13.20;99.90;;;;;;4894554;29;20502;-79
2023/07/07 01:20:41;;;;;;;7.63;4.43;;;13.10;99.90;;;;;;4894963;29;20481;-79
2023/07/07 01:23:06;;;;;;;6.22;4.05;;;13.10;99.90;;;;;;4894481;29;20431;-77
2023/07/07 01:25:47;;;;;;;6.23;4.10;;;13.10;99.90;;;;;;4889481;29;20440;-78
2023/07/07 01:28:22;;;;;;;7.53;4.40;;;13.10;99.90;;;;;;4888386;29;21015;-78
2023/07/07 01:30:55;;;;;;;5.67;3.90;;;13.20;99.90;;;;;;4895988;29;20426;-79
2023/07/07 01:33:24;;;;;;;5.28;4.38;;;13.30;99.90;;;;;;4914226;29;20433;-78
2023/07/07 01:35:50;;;;;;;8.05;4.03;;;13.30;99.90;;;;;;4914401;29;20500;-77
2023/07/07 01:38:36;;;;;;;5.23;4.23;;;12.70;99.90;;;;;;4914832;29;20417;-78
2023/07/07 01:41:34;;;;;;;7.88;4.85;;;13.30;99.90;;;;;;4904925;28;20415;-79
2023/07/07 01:44:07;;;;;;;9.43;4.53;;;13.40;99.90;;;;;;4894939;29;20423;-78
2023/07/07 01:46:50;;;;;;;6.63;5.00;;;13.30;99.90;;;;;;4896349;28;20422;-79
2023/07/07 01:49:38;;;;;;;7.28;5.03;;;13.30;99.90;;;;;;4892236;29;21015;-78
2023/07/07 01:52:21;;;;;;;7.65;5.10;;;13.20;99.90;;;;;;4895269;29;20774;-79
2023/07/07 01:55:01;;;;;;;7.43;5.30;;;13.20;99.90;;;;;;4892893;29;20454;-77
2023/07/07 01:57:27;;;;;;;8.45;5.25;;;13.20;99.90;;;;;;4880145;29;20419;-77
2023/07/07 01:59:54;;;;;;;6.70;5.22;;;13.20;99.90;;;;;;4896277;28;20455;-75
2023/07/07 02:02:21;;;;;;;8.18;5.72;;;13.20;99.90;;;;;;4893815;29;20435;-79
2023/07/07 02:04:47;;;;;;;7.90;5.55;;;13.30;99.90;;;;;;4891237;29;20449;-77
2023/07/07 02:07:13;;;;;;;7.00;5.80;;;13.30;99.90;;;;;;4894506;29;20850;-77
2023/07/07 02:09:39;;;;;;;10.55;6.05;;;13.20;99.90;;;;;;4894568;28;20441;-79
2023/07/07 02:12:06;;;;;;;8.48;5.72;;;13.20;99.90;;;;;;4894820;29;20423;-77
2023/07/07 02:14:31;;;;;;;9.45;5.88;;;13.30;99.90;;;;;;4892629;28;20494;-78
2023/07/07 02:16:57;;;;;;;10.07;6.80;;;13.40;99.90;;;;;;4894593;28;20855;-77
2023/07/07 02:19:23;;;;;;;6.73;6.03;;;13.40;99.90;;;;;;4894508;29;20422;-78
2023/07/07 02:21:49;;;;;;;8.17;5.87;;;13.40;99.90;;;;;;4895288;29;20502;-78
2023/07/07 02:24:14;;;;;;;9.43;6.10;;;13.40;99.90;;;;;;4896985;28;20484;-78
2023/07/07 02:26:40;;;;;;;7.57;6.25;;;13.40;99.90;;;;;;4900589;29;20445;-79
2023/07/07 02:29:06;;;;;;;7.22;5.88;;;13.40;99.90;;;;;;4885032;28;20433;-78
2023/07/07 02:31:31;;;;;;;10.77;7.00;;;13.50;99.90;;;;;;4889516;28;20477;-78
2023/07/07 02:33:57;;;;;;;7.30;6.57;;;13.50;99.90;;;;;;4891542;28;20445;-78
2023/07/07 02:36:24;;;;;;;10.23;6.93;;;13.50;99.90;;;;;;4893082;28;20431;-78
2023/07/07 02:38:52;;;;;;;8.18;6.97;;;13.40;99.90;;;;;;4892901;28;20427;-78
2023/07/07 02:41:19;;;;;;;8.30;7.40;;;13.50;99.90;;;;;;4892691;28;20427;-81
2023/07/07 02:43:45;;;;;;;9.77;7.15;;;13.40;99.90;;;;;;4896509;29;20442;-77
2023/07/07 02:46:11;;;;;;;9.40;8.00;;;13.30;99.90;;;;;;4886450;29;20445;-77
2023/07/07 02:48:37;;;;;;;10.15;7.47;;;13.40;99.90;;;;;;4881115;28;20442;-79
2023/07/07 02:51:05;;;;;;;10.10;8.27;;;13.40;99.90;;;;;;4892985;29;20470;-78
2023/07/07 02:53:33;;;;;;;10.18;7.70;;;13.40;99.90;;;;;;4891523;29;21298;-79
2023/07/07 02:55:59;;;;;;;10.93;8.75;;;13.40;99.90;;;;;;4888568;28;20447;-77
2023/07/07 02:58:25;;;;;;;9.13;7.55;;;13.30;99.90;;;;;;4890447;28;20431;-78
2023/07/07 03:00:51;;;;;;;11.63;8.20;;;13.30;99.90;;;;;;4891423;28;20937;-78
2023/07/07 03:03:19;;;;;;;10.20;8.88;;;13.30;99.90;;;;;;4890294;28;20502;-77
2023/07/07 03:05:45;;;;;;;10.32;8.93;;;13.30;99.90;;;;;;4895329;29;20921;-77
2023/07/07 03:08:11;;;;;;;9.73;8.18;;;13.30;99.90;;;;;;4894506;29;20470;-77
2023/07/07 03:10:39;;;;;;;11.35;8.65;;;13.20;99.90;;;;;;4892860;29;20435;-79
2023/07/07 03:13:05;;;;;;;10.65;8.73;;;13.20;99.90;;;;;;4904144;29;20421;-79
2023/07/07 03:15:40;;;;;;;9.23;8.25;;;13.20;99.90;;;;;;4891380;29;20519;-77
2023/07/07 03:18:10;;;;;;;11.25;8.80;;;13.30;99.90;;;;;;4876870;29;20474;-77
2023/07/07 03:20:37;;;;;;;12.93;9.13;;;13.20;99.90;;;;;;4893027;29;20441;-79
2023/07/07 03:23:03;;;;;;;11.10;9.67;;;13.30;99.90;;;;;;4898794;28;20501;-80
2023/07/07 03:25:30;;;;;;;11.67;9.83;;;13.30;99.90;;;;;;4880656;28;20452;-79
2023/07/07 03:27:56;;;;;;;12.15;9.88;;;13.10;99.90;;;;;;4902871;29;20945;-78
2023/07/07 03:30:22;;;;;;;11.90;9.17;;;13.20;99.90;;;;;;4890246;29;20439;-80
2023/07/07 03:32:48;;;;;;;13.00;10.98;;;13.20;99.90;;;;;;4898497;29;21140;-79
2023/07/07 03:35:13;;;;;;;13.77;10.03;;;13.30;99.90;;;;;;4894176;29;20439;-78
2023/07/07 03:37:39;;;;;;;13.47;10.07;;;13.20;99.90;;;;;;4896653;28;20434;-77
2023/07/07 03:40:06;;;;;;;11.63;10.23;;;13.20;99.90;;;;;;4893754;28;20493;-78
2023/07/07 03:42:33;;;;;;;13.90;10.00;;;13.20;99.90;;;;;;4892771;28;20470;-79
2023/07/07 03:44:59;;;;;;;11.57;10.27;;;13.20;99.90;;;;;;4896850;28;20478;-79
2023/07/07 03:47:25;;;;;;;11.75;10.27;;;13.50;99.90;;;;;;4898333;29;20419;-77
2023/07/07 03:49:51;;;;;;;13.63;10.38;;;13.30;99.90;;;;;;4889271;29;20443;-79
2023/07/07 03:52:17;;;;;;;13.40;10.70;;;13.20;99.90;;;;;;4893780;29;20536;-79
2023/07/07 03:54:43;;;;;;;13.07;11.23;;;13.20;99.90;;;;;;4886684;28;20537;-78
2023/07/07 03:57:12;;;;;;;16.33;11.40;;;13.20;99.90;;;;;;4891081;28;20528;-80
2023/07/07 03:59:38;;;;;;;13.57;10.77;;;13.30;99.90;;;;;;4884294;28;20450;-79
2023/07/07 04:02:05;;;;;;;14.55;11.40;;;13.30;99.90;;;;;;4893608;29;20435;-79
2023/07/07 04:04:31;;;;;;;16.83;11.05;;;13.30;99.90;;;;;;4896404;28;20446;-79
2023/07/07 04:06:58;;;;;;;12.10;10.80;;;13.30;99.90;;;;;;4890759;29;21003;-79
2023/07/07 04:09:24;;;;;;;15.20;12.05;;;13.30;99.90;;;;;;4891481;29;20994;-79
2023/07/07 04:11:50;;;;;;;14.43;11.52;;;13.40;99.90;;;;;;4890736;28;20475;-79
2023/07/07 04:14:16;;;;;;;13.30;11.88;;;13.80;99.90;;;;;;4936809;28;20906;-80
2023/07/07 04:16:42;;;;;;;15.63;11.45;;;13.60;99.90;;;;;;4890553;29;20450;-81
2023/07/07 04:19:08;;;;;;;14.00;11.45;;;13.60;99.90;;;;;;4891491;29;20429;-81
2023/07/07 04:21:34;;;;;;;14.48;11.88;;;13.50;99.90;;;;;;4878448;28;20468;-79
2023/07/07 04:24:01;;;;;;;13.17;11.70;;;13.50;99.90;;;;;;4890100;28;20448;-80
2023/07/07 04:26:29;;;;;;;15.13;12.07;;;13.40;99.90;;;;;;4891457;28;20518;-79
2023/07/07 04:28:58;;;;;;;14.05;12.55;;;13.60;99.90;;;;;;4889629;28;20976;-79
2023/07/07 04:31:25;;;;;;;14.43;11.85;;;13.60;99.90;;;;;;4890569;28;20438;-78
2023/07/07 04:33:52;;;;;;;16.90;13.20;;;13.70;99.90;;;;;;4893366;28;20437;-77
2023/07/07 04:36:18;;;;;;;15.55;12.27;;;15.10;99.90;;;;;;4890899;29;20445;-76
2023/07/07 04:38:44;;;;;;;12.90;11.50;;;14.80;99.90;;;;;;4888395;29;20509;-79
2023/07/07 04:41:13;;;;;;;14.88;11.55;;;15.40;99.90;;;;;;4889572;29;20482;-80
2023/07/07 04:43:45;;;;;;;13.88;12.25;;;14.70;99.90;;;;;;4886512;29;20445;-80
2023/07/07 04:46:12;;;;;;;14.88;12.13;;;14.50;99.90;;;;;;4887938;29;20798;-79
2023/07/07 04:48:39;;;;;;;15.23;11.85;;;14.40;99.90;;;;;;4891204;28;21003;-81
2023/07/07 04:51:09;;;;;;;13.93;12.52;;;14.70;99.90;;;;;;4890946;28;20514;-77
2023/07/07 04:53:37;;;;;;;16.40;12.40;;;16.10;99.90;;;;;;4919201;28;20451;-77
2023/07/07 04:56:11;;;;;;;13.95;12.57;;;15.30;99.90;;;;;;4891229;29;20877;-77
2023/07/07 04:58:39;;;;;;;13.57;12.23;;;15.00;99.90;;;;;;4889731;28;20518;-77
2023/07/07 05:01:09;;;;;;;15.57;12.52;;;14.90;99.90;;;;;;4892215;28;20805;-77
2023/07/07 05:03:36;;;;;;;17.35;13.27;;;14.90;99.90;;;;;;4894919;29;20577;-78
2023/07/07 05:06:03;;;;;;;16.02;13.15;;;14.90;99.90;;;;;;4888471;28;20439;-77
2023/07/07 05:08:34;;;;;;;16.92;12.98;;;14.90;99.90;;;;;;4890287;29;20442;-78
2023/07/07 05:11:01;;;;;;;16.17;13.30;;;14.80;99.90;;;;;;4890432;29;21047;-80
2023/07/07 05:13:27;;;;;;;16.57;13.53;;;14.80;99.90;;;;;;4886481;28;20467;-78
2023/07/07 05:16:05;;;;;;;14.27;12.93;;;15.00;99.90;;;;;;4897369;28;20528;-77
2023/07/07 05:18:30;;;;;;;15.85;13.32;;;15.00;99.90;;;;;;4901317;29;20444;-77
2023/07/07 05:20:56;;;;;;;15.00;13.45;;;15.10;99.90;;;;;;4894852;28;20434;-77
2023/07/07 05:23:22;;;;;;;14.65;13.05;;;15.00;99.90;;;;;;4888858;29;21172;-78
2023/07/07 05:25:49;;;;;;;16.67;13.55;;;15.10;99.90;;;;;;4896037;29;20434;-76
2023/07/07 05:28:14;;;;;;;15.13;13.33;;;15.20;99.90;;;;;;4891770;28;20574;-77
2023/07/07 05:30:40;;;;;;;14.17;11.93;;;15.20;99.90;;;;;;4890575;28;20470;-78
2023/07/07 05:33:06;;;;;;;16.63;12.85;;;15.30;99.90;;;;;;4888605;28;20437;-78
2023/07/07 05:35:32;;;;;;;16.90;14.37;;;15.40;99.90;;;;;;4896895;28;20437;-78
2023/07/07 05:38:02;;;;;;;19.37;13.60;;;15.40;99.90;;;;;;4895985;29;20789;-78
2023/07/07 05:40:28;;;;;;;15.63;12.80;;;15.50;99.90;;;;;;4888796;29;20463;-78
2023/07/07 05:42:54;;;;;;;14.40;12.73;;;15.50;99.90;;;;;;4887457;28;20880;-77
2023/07/07 05:45:23;;;;;;;15.68;13.10;;;15.70;99.90;;;;;;4895901;28;20499;-77
2023/07/07 05:47:48;;;;;;;17.23;13.57;;;15.90;99.90;;;;;;4890180;28;20497;-79
2023/07/07 05:50:14;;;;;;;14.10;12.52;;;16.10;99.90;;;;;;4884451;29;20831;-77
2023/07/07 05:52:40;;;;;;;15.07;13.52;;;16.20;99.90;;;;;;4890176;29;20522;-77
2023/07/07 05:55:06;;;;;;;14.03;12.33;;;16.40;99.90;;;;;;4889329;28;20471;-78
2023/07/07 05:57:32;;;;;;;14.15;12.65;;;16.20;99.90;;;;;;4891818;28;20461;-78
2023/07/07 05:59:58;;;;;;;17.55;12.75;;;16.40;99.90;;;;;;4891935;28;21083;-77
2023/07/07 06:02:23;;;;;;;12.83;11.57;;;16.30;99.90;;;;;;4895220;28;20522;-78
2023/07/07 06:04:49;;;;;;;14.43;12.57;;;16.40;99.90;;;;;;4892830;29;20529;-77
2023/07/07 06:07:15;;;;;;;16.47;12.60;;;16.40;99.90;;;;;;4900584;28;20442;-77
2023/07/07 06:09:40;;;;;;;14.57;11.85;;;16.50;99.90;;;;;;4896178;28;20441;-76
2023/07/07 06:12:07;;;;;;;12.45;11.18;;;16.60;99.90;;;;;;4891132;28;20529;-78
2023/07/07 06:14:32;;;;;;;15.75;12.13;;;16.50;99.90;;;;;;4891430;28;20542;-78
2023/07/07 06:16:58;;;;;;;13.30;11.32;;;16.60;99.90;;;;;;4892424;29;20498;-77
2023/07/07 06:19:24;;;;;;;12.75;11.32;;;16.70;99.90;;;;;;4891623;28;20443;-79
2023/07/07 06:21:50;;;;;;;13.10;11.45;;;16.80;99.90;;;;;;4896739;28;20498;-79
2023/07/07 06:24:15;;;;;;;14.83;10.63;;;16.80;99.90;;;;;;4902907;29;20567;-78
2023/07/07 06:26:41;;;;;;;13.83;10.23;;;16.90;99.90;;;;;;4902252;28;20447;-80
2023/07/07 06:29:07;;;;;;;14.40;11.23;;;17.00;99.90;;;;;;4891943;28;20463;-78
2023/07/07 06:31:32;;;;;;;12.68;10.63;;;17.10;99.90;;;;;;4893375;28;20435;-78
2023/07/07 06:33:58;;;;;;;13.63;10.73;;;17.20;99.90;;;;;;4891802;28;20514;-77
2023/07/07 06:36:24;;;;;;;13.37;11.87;;;17.30;99.90;;;;;;4891261;28;20811;-78
2023/07/07 06:38:49;;;;;;;11.77;9.63;;;17.40;99.90;;;;;;4891282;29;20498;-78
2023/07/07 06:41:20;;;;;;;10.90;9.75;;;17.40;99.90;;;;;;4891513;29;20435;-78
2023/07/07 06:43:45;;;;;;;12.30;10.23;;;17.50;99.90;;;;;;4889850;28;20507;-79
2023/07/07 06:46:14;;;;;;;13.77;9.77;;;17.50;99.90;;;;;;4889783;28;20443;-79
2023/07/07 06:48:40;;;;;;;14.32;9.73;;;17.70;99.90;;;;;;4901425;28;20438;-79
2023/07/07 06:51:06;;;;;;;11.43;8.20;;;17.70;99.90;;;;;;4906429;28;20503;-79
2023/07/07 06:53:32;;;;;;;9.25;7.63;;;17.80;99.90;;;;;;4896524;28;20461;-80
2023/07/07 06:55:57;;;;;;;11.65;8.40;;;18.60;99.90;;;;;;4896231;28;20498;-81
2023/07/07 06:58:23;;;;;;;8.60;7.65;;;19.10;99.90;;;;;;4898259;29;20459;-78
2023/07/07 07:00:49;;;;;;;8.20;6.60;;;19.10;99.90;;;;;;4895847;29;20445;-80
2023/07/07 07:03:15;;;;;;;9.32;7.72;;;20.30;99.90;;;;;;4897545;29;20478;-80
2023/07/07 07:05:41;;;;;;;10.25;7.32;;;21.40;99.90;;;;;;4902788;28;20435;-81
2023/07/07 07:08:07;;;;;;;8.57;6.10;;;22.40;99.90;;;;;;4898606;29;20442;-80
2023/07/07 07:10:33;;;;;;;9.23;6.57;;;22.90;99.90;;;;;;4895923;29;20917;-79
2023/07/07 07:12:58;;;;;;;8.67;6.50;;;23.10;99.90;;;;;;4892564;28;20586;-80
2023/07/07 07:15:24;;;;;;;7.83;6.13;;;23.40;99.90;;;;;;4882736;29;20576;-81
2023/07/07 07:17:50;;;;;;;9.93;6.13;;;23.30;99.90;;;;;;4913465;29;20439;-80
2023/07/07 07:20:17;;;;;;;9.37;6.00;;;23.70;99.90;;;;;;4891720;28;20838;-80
2023/07/07 07:22:43;;;;;;;5.17;4.50;;;22.90;99.90;;;;;;4893745;29;20445;-78
2023/07/07 07:25:09;;;;;;;9.43;5.75;;;23.70;99.90;;;;;;4894410;28;20515;-80
2023/07/07 07:27:37;;;;;;;9.53;5.67;;;24.20;99.90;;;;;;4900785;28;20456;-80
2023/07/07 07:30:04;;;;;;;8.27;5.53;;;24.80;99.90;;;;;;4893357;29;20429;-80
2023/07/07 07:32:30;;;;;;;9.02;5.57;;;24.30;99.90;;;;;;4893946;29;20803;-79
2023/07/07 07:34:55;;;;;;;5.88;4.78;;;25.20;99.90;;;;;;4891983;28;20497;-79
2023/07/07 07:37:21;;;;;;;7.60;4.57;;;25.20;99.90;;;;;;4887705;29;20908;-80
2023/07/07 07:39:47;;;;;;;8.52;4.93;;;24.60;99.90;;;;;;4883922;28;20450;-80
2023/07/07 07:42:13;;;;;;;6.18;4.45;;;23.90;99.90;;;;;;4890812;29;20810;-78
2023/07/07 07:44:38;;;;;;;6.43;4.20;;;25.40;99.90;;;;;;4890324;28;20432;-82
2023/07/07 07:47:05;;;;;;;8.73;5.03;;;25.50;99.90;;;;;;4905853;28;20829;-78
2023/07/07 07:49:32;;;;;;;9.23;4.05;;;24.50;99.90;;;;;;4891475;28;20447;-78
2023/07/07 07:51:57;;;;;;;4.60;3.60;;;24.40;99.90;;;;;;4892489;29;20415;-82
2023/07/07 07:54:24;;;;;;;6.72;3.92;;;24.00;99.90;;;;;;4889480;28;20443;-80
2023/07/07 07:56:50;;;;;;;5.00;3.50;;;23.80;99.90;;;;;;4892128;28;20465;-79
2023/07/07 07:59:16;;;;;;;7.75;4.38;;;23.50;99.90;;;;;;4902505;29;20443;-79
2023/07/07 08:01:41;;;;;;;6.27;3.77;;;23.10;99.90;;;;;;4890777;29;20435;-80
2023/07/07 08:04:07;;;;;;;7.45;3.75;;;23.60;99.90;;;;;;4890481;28;20955;-79
2023/07/07 08:06:33;;;;;;;5.43;3.15;;;23.40;99.90;;;;;;4890270;28;20439;-78
2023/07/07 08:08:59;;;;;;;9.37;3.33;;;23.20;99.90;;;;;;4893152;28;20483;-80
2023/07/07 08:11:48;;;;;;;6.57;3.37;;;23.00;99.90;;;;;;4886602;29;20500;-80
2023/07/07 08:14:17;;;;;;;7.25;3.78;;;23.10;99.90;;;;;;4902882;28;20431;-81
2023/07/07 08:16:45;;;;;;;4.65;3.33;;;23.40;99.90;;;;;;4890812;28;20443;-79
2023/07/07 08:19:11;;;;;;;6.17;3.53;;;23.60;99.90;;;;;;4906129;29;20573;-80
2023/07/07 08:21:37;;;;;;;6.13;3.20;;;23.70;99.90;;;;;;4891145;29;20878;-80
2023/07/07 08:24:04;;;;;;;5.63;3.30;;;23.70;99.90;;;;;;4886240;28;20801;-79
2023/07/07 08:26:30;;;;;;;5.53;3.53;;;23.40;99.90;;;;;;4884266;28;20553;-80
2023/07/07 08:28:55;;;;;;;9.32;4.07;;;23.30;99.90;;;;;;4888836;28;20961;-79
2023/07/07 08:31:21;;;;;;;5.73;3.33;;;23.70;99.90;;;;;;4892648;28;20435;-79
2023/07/07 08:33:47;;;;;;;7.78;2.70;;;23.80;99.90;;;;;;4889826;28;20450;-81
2023/07/07 08:36:13;;;;;;;7.82;2.92;;;23.90;99.90;;;;;;4894427;28;20534;-80
2023/07/07 08:38:39;;;;;;;6.38;3.30;;;24.00;99.90;;;;;;4894524;28;20427;-80
2023/07/07 08:41:05;;;;;;;5.20;3.60;;;23.70;99.90;;;;;;4892703;28;20446;-79
2023/07/07 08:43:31;;;;;;;4.07;2.70;;;23.80;99.90;;;;;;4887095;28;20563;-79
2023/07/07 08:46:33;;;;;;;6.07;3.13;;;23.60;99.90;;;;;;4890161;28;20486;-77
2023/07/07 08:49:09;;;;;;;4.95;2.65;;;23.70;99.90;;;;;;4888108;28;20525;-80
2023/07/07 08:51:42;;;;;;;4.40;2.45;;;24.30;99.90;;;;;;4889033;28;20431;-78
2023/07/07 08:54:26;;;;;;;5.20;3.00;;;24.20;99.90;;;;;;4894271;28;20521;-80
2023/07/07 08:57:08;;;;;;;6.45;2.50;;;24.30;99.90;;;;;;4895705;29;20423;-78
2023/07/07 08:59:45;;;;;;;4.40;2.42;;;24.00;99.90;;;;;;4898236;29;20435;-79
2023/07/07 09:02:33;;;;;;;6.25;3.60;;;24.40;99.90;;;;;;4891260;28;20427;-78
2023/07/07 09:05:22;;;;;;;3.72;2.63;;;24.20;99.90;;;;;;4891460;28;20468;-80
2023/07/07 09:08:22;;;;;;;4.03;2.67;;;24.50;99.90;;;;;;4874739;29;20429;-79
2023/07/07 09:11:16;;;;;;;5.10;2.47;;;24.60;99.90;;;;;;4890624;28;20942;-79
2023/07/07 09:13:45;;;;;;;5.95;2.30;;;24.50;99.90;;;;;;4871087;29;20450;-79
2023/07/07 09:16:21;;;;;;;4.20;2.45;;;24.60;99.90;;;;;;4893113;29;20439;-81
2023/07/07 09:18:50;;;;;;;3.92;2.10;;;24.80;99.90;;;;;;4902618;29;20511;-79
2023/07/07 09:21:31;;;;;;;4.63;2.10;;;24.70;99.90;;;;;;4892460;29;20445;-76
2023/07/07 09:24:02;;;;;;;6.43;4.05;;;24.70;99.90;;;;;;4893964;29;20440;-81
2023/07/07 09:26:34;;;;;;;4.25;2.25;;;24.90;96.70;;;;;;4891202;28;20844;-78
2023/07/07 09:29:07;;;;;;;4.30;2.47;;;25.20;99.90;;;;;;4922551;28;20449;-76
2023/07/07 09:31:42;;;;;;;5.47;2.58;;;25.10;98.90;;;;;;4898678;29;20765;-78
2023/07/07 09:34:10;;;;;;;3.70;2.50;;;25.10;98.40;;;;;;4896279;29;20451;-78
2023/07/07 09:37:07;;;;;;;6.00;2.22;;;25.00;93.90;;;;;;4898441;28;20442;-77
2023/07/07 09:39:56;;;;;;;6.72;2.47;;;24.90;94.00;;;;;;4925670;29;20453;-79
2023/07/07 09:42:38;;;;;;;5.82;2.10;;;24.50;92.00;;;;;;4894195;29;20873;-77
2023/07/07 09:45:40;;;;;;;4.15;2.47;;;24.90;94.40;;;;;;4895631;29;20431;-79
2023/07/07 09:48:06;;;;;;;5.13;3.07;;;25.10;95.50;;;;;;4892010;28;20434;-77
2023/07/07 09:50:41;;;;;;;4.30;2.55;;;25.30;94.50;;;;;;4895385;28;20434;-77
2023/07/07 09:53:25;;;;;;;6.55;3.15;;;25.10;94.70;;;;;;4895761;29;20957;-78
2023/07/07 09:55:53;;;;;;;4.78;2.20;;;25.20;93.60;;;;;;4896233;29;20455;-78
2023/07/07 09:58:24;;;;;;;3.80;2.20;;;25.00;96.40;;;;;;4900404;29;20516;-77
2023/07/07 10:00:56;;;;;;;3.60;2.10;;;25.30;98.10;;;;;;4894218;28;20446;-78
2023/07/07 10:03:28;;;;;;;4.43;2.53;;;25.10;94.70;;;;;;4895975;28;20927;-79
2023/07/07 10:05:56;;;;;;;3.53;2.13;;;25.30;93.70;;;;;;4895338;28;20439;-77
2023/07/07 10:08:22;;;;;;;4.30;2.00;;;25.30;93.30;;;;;;4891657;28;21007;-78
2023/07/07 10:11:04;;;;;;;4.27;2.57;;;25.30;91.80;;;;;;4891412;28;20462;-78
2023/07/07 10:13:31;;;;;;;3.25;2.30;;;25.30;93.00;;;;;;4885155;28;20993;-77
2023/07/07 10:16:07;;;;;;;5.82;2.55;;;25.70;93.70;;;;;;4894925;28;20517;-77
2023/07/07 10:18:33;;;;;;;3.47;2.20;;;25.70;91.00;;;;;;4922831;29;20427;-76
2023/07/07 10:21:04;;;;;;;5.57;2.75;;;25.60;90.20;;;;;;4896168;28;20538;-75
2023/07/07 10:23:30;;;;;;;3.70;2.23;;;25.20;87.50;;;;;;4875785;29;20412;-78
2023/07/07 10:25:56;;;;;;;4.25;2.20;;;25.30;82.70;;;;;;4892910;28;20871;-76
2023/07/07 10:28:24;;;;;;;5.22;2.42;;;25.40;89.00;;;;;;4897821;28;20438;-77
2023/07/07 10:30:51;;;;;;;2.83;2.33;;;25.20;93.80;;;;;;4892284;28;20549;-78
2023/07/07 10:33:21;;;;;;;4.97;2.20;;;25.60;92.00;;;;;;4895041;29;20962;-80
2023/07/07 10:35:47;;;;;;;4.88;2.10;;;25.90;90.60;;;;;;4885100;29;20474;-79
2023/07/07 10:38:13;;;;;;;3.20;2.07;;;25.60;80.30;;;;;;4895884;28;21012;-78
2023/07/07 10:40:41;;;;;;;4.13;2.00;;;25.60;87.30;;;;;;4896854;29;20521;-79
2023/07/07 10:43:12;;;;;;;4.70;2.15;;;25.80;91.40;;;;;;4894978;29;20431;-80
2023/07/07 10:45:42;;;;;;;2.67;1.88;;;25.90;88.70;;;;;;4896164;28;20522;-78
2023/07/07 10:48:12;;;;;;;4.97;2.50;;;25.90;86.30;;;;;;4894182;29;20435;-77
2023/07/07 10:51:10;;;;;;;3.25;2.58;;;25.80;82.50;;;;;;4895096;29;20465;-76
2023/07/07 10:53:48;;;;;;;5.13;1.98;;;25.50;82.70;;;;;;4910638;28;20940;-77
2023/07/07 10:56:28;;;;;;;4.63;2.47;;;25.80;84.70;;;;;;4894126;28;20497;-78
2023/07/07 10:59:17;;;;;;;4.20;2.45;;;25.80;85.80;;;;;;4898554;28;20431;-80
2023/07/07 11:01:51;;;;;;;3.90;2.40;;;25.80;91.90;;;;;;4899741;28;20445;-80
2023/07/07 11:04:28;;;;;;;6.45;2.08;;;26.10;88.80;;;;;;4884550;29;20534;-83
2023/07/07 11:07:18;;;;;;;4.60;2.58;;;25.70;80.60;;;;;;4896022;28;20964;-80
2023/07/07 11:09:43;;;;;;;7.10;2.05;;;25.60;87.20;;;;;;4891839;28;20803;-79
2023/07/07 11:12:37;;;;;;;6.30;2.57;;;26.00;92.60;;;;;;4895566;28;20431;-81
2023/07/07 11:15:30;;;;;;;5.70;2.58;;;26.10;95.60;;;;;;4900366;29;20455;-79
2023/07/07 11:18:11;;;;;;;3.25;2.22;;;26.20;88.40;;;;;;4895807;28;20479;-78
2023/07/07 11:21:13;;;;;;;3.78;2.70;;;26.20;84.60;;;;;;4909121;28;20769;-79
2023/07/07 11:24:03;;;;;;;4.63;2.30;;;26.20;84.90;;;;;;4940007;28;20439;-79
2023/07/07 11:26:43;;;;;;;4.50;2.30;;;26.20;80.30;;;;;;4889790;29;20453;-79
2023/07/07 11:29:30;;;;;;;3.77;1.90;;;26.30;83.80;;;;;;4895383;28;20849;-81
2023/07/07 11:32:28;;;;;;;5.28;2.40;;;26.30;88.80;;;;;;4903681;28;20485;-78
2023/07/07 11:35:16;;;;;;;6.35;2.65;;;26.50;89.30;;;;;;4898220;28;20447;-77
2023/07/07 11:38:17;;;;;;;4.18;2.60;;;26.10;90.30;;;;;;4895597;29;20466;-79
2023/07/07 11:40:53;;;;;;;4.73;2.33;;;25.80;91.90;;;;;;4901176;28;20437;-77
2023/07/07 11:43:34;;;;;;;5.53;3.30;;;25.40;91.10;;;;;;4893893;28;20491;-80
2023/07/07 11:45:59;;;;;;;3.25;2.35;;;25.60;95.10;;;;;;4895279;28;20442;-79
2023/07/07 11:48:33;;;;;;;4.85;2.35;;;26.00;93.20;;;;;;4901057;28;20473;-79
2023/07/07 11:51:06;;;;;;;4.10;2.15;;;25.80;92.00;;;;;;4902678;28;20517;-78
2023/07/07 11:54:10;;;;;;;7.20;2.40;;;25.90;88.20;;;;;;4892289;28;20466;-79
2023/07/07 11:57:12;;;;;;;7.93;3.20;;;26.00;91.00;;;;;;4893762;28;20494;-81
2023/07/07 11:59:47;;;;;;;4.78;2.63;;;26.10;90.90;;;;;;4902190;28;20777;-79
2023/07/07 12:02:22;;;;;;;6.17;2.53;;;26.10;88.80;;;;;;4900625;28;20446;-80
2023/07/07 12:04:50;;;;;;;4.95;2.60;;;26.40;82.80;;;;;;4891029;29;20425;-78
2023/07/07 12:07:35;;;;;;;3.20;2.10;;;26.40;85.80;;;;;;4893139;28;20438;-76
2023/07/07 12:10:17;;;;;;;3.70;2.65;;;25.90;78.70;;;;;;4894379;29;20431;-79
2023/07/07 12:12:49;;;;;;;5.43;3.03;;;25.90;86.60;;;;;;4893613;29;20426;-79
2023/07/07 12:15:25;;;;;;;5.40;2.70;;;25.40;92.50;;;;;;4893750;28;20478;-79
2023/07/07 12:18:28;;;;;;;4.38;2.30;;;25.80;94.20;;;;;;4888367;28;20434;-78
2023/07/07 12:21:00;;;;;;;3.53;2.53;;;26.30;87.50;;;;;;4894810;29;20774;-78
2023/07/07 12:23:30;;;;;;;4.90;2.60;;;26.10;80.10;;;;;;4881316;28;20476;-78
2023/07/07 12:26:19;;;;;;;5.22;2.42;;;26.10;77.50;;;;;;4894083;28;20427;-78
2023/07/07 12:28:53;;;;;;;4.80;2.40;;;26.50;79.90;;;;;;4904925;28;20794;-78
2023/07/07 12:31:20;;;;;;;4.10;2.77;;;26.40;70.00;;;;;;4899501;29;20471;-78
2023/07/07 12:33:51;;;;;;;3.22;2.05;;;26.30;78.30;;;;;;4894851;28;21146;-77
2023/07/07 12:36:18;;;;;;;6.45;2.65;;;26.10;76.20;;;;;;4893189;28;20457;-78
2023/07/07 12:38:49;;;;;;;6.57;2.83;;;26.60;81.70;;;;;;4925124;28;20561;-79
2023/07/07 12:41:21;;;;;;;5.25;2.50;;;26.60;74.60;;;;;;4892469;28;20502;-77
2023/07/07 12:43:52;;;;;;;3.10;2.37;;;26.50;68.60;;;;;;4894774;29;21119;-78
2023/07/07 12:46:24;;;;;;;2.85;2.40;;;26.70;67.80;;;;;;4892608;29;20425;-80
2023/07/07 12:48:52;;;;;;;5.05;2.63;;;26.80;75.40;;;;;;4893861;28;21152;-78
2023/07/07 12:51:19;;;;;;;4.17;2.40;;;26.30;69.40;;;;;;4894378;29;20423;-79
2023/07/07 12:53:47;;;;;;;3.88;2.10;;;26.40;78.10;;;;;;4905018;29;20444;-79
2023/07/07 12:56:19;;;;;;;5.13;2.60;;;26.50;72.20;;;;;;4911140;29;20803;-79
2023/07/07 12:58:59;;;;;;;4.20;2.30;;;26.60;70.70;;;;;;4911537;29;20824;-79